sensor_id;sensor_type;location;lat;lon;timestamp;P1;durP1;ratioP1;P2;durP2;ratioP2
17398;SDS011;8817;48.170;8.592;2022-07-29T00:00:39;10.27;;;9.32;;
17398;SDS011;8817;48.170;8.592;2022-07-29T00:03:09;9.45;;;8.65;;
17398;SDS011;8817;48.170;8.592;2022-07-29T00:05:37;9.57;;;8.80;;
17398;SDS011;8817;48.170;8.592;2022-07-29T00:08:05;9.32;;;8.63;;
17398;SDS011;8817;48.170;8.592;2022-07-29T00:10:34;9.88;;;9.07;;
17398;SDS011;8817;48.170;8.592;2022-07-29T00:13:01;9.40;;;8.70;;
17398;SDS011;8817;48.170;8.592;2022-07-29T00:15:28;9.73;;;8.93;;
17398;SDS011;8817;48.170;8.592;2022-07-29T00:17:56;9.70;;;8.90;;
17398;SDS011;8817;48.170;8.592;2022-07-29T00:20:23;9.00;;;8.40;;
17398;SDS011;8817;48.170;8.592;2022-07-29T00:22:50;9.50;;;8.68;;
17398;SDS011;8817;48.170;8.592;2022-07-29T00:25:17;9.40;;;8.70;;
17398;SDS011;8817;48.170;8.592;2022-07-29T00:27:45;9.50;;;8.70;;
17398;SDS011;8817;48.170;8.592;2022-07-29T00:30:12;9.57;;;8.60;;
17398;SDS011;8817;48.170;8.592;2022-07-29T00:32:39;9.13;;;8.43;;
17398;SDS011;8817;48.170;8.592;2022-07-29T00:35:07;9.18;;;8.57;;
17398;SDS011;8817;48.170;8.592;2022-07-29T00:37:51;9.23;;;8.60;;
17398;SDS011;8817;48.170;8.592;2022-07-29T00:40:18;9.63;;;8.90;;
17398;SDS011;8817;48.170;8.592;2022-07-29T00:42:47;9.13;;;8.43;;
17398;SDS011;8817;48.170;8.592;2022-07-29T00:45:16;9.25;;;8.55;;
17398;SDS011;8817;48.170;8.592;2022-07-29T00:47:43;9.35;;;8.57;;
17398;SDS011;8817;48.170;8.592;2022-07-29T00:50:11;9.23;;;8.63;;
17398;SDS011;8817;48.170;8.592;2022-07-29T00:52:39;9.45;;;8.65;;
17398;SDS011;8817;48.170;8.592;2022-07-29T00:55:08;9.85;;;9.02;;
17398;SDS011;8817;48.170;8.592;2022-07-29T00:57:37;9.35;;;8.75;;
17398;SDS011;8817;48.170;8.592;2022-07-29T01:00:08;9.38;;;8.60;;
17398;SDS011;8817;48.170;8.592;2022-07-29T01:02:37;9.45;;;8.73;;
17398;SDS011;8817;48.170;8.592;2022-07-29T01:05:05;9.57;;;8.88;;
17398;SDS011;8817;48.170;8.592;2022-07-29T01:07:32;10.13;;;9.20;;
17398;SDS011;8817;48.170;8.592;2022-07-29T01:10:01;10.10;;;9.20;;
17398;SDS011;8817;48.170;8.592;2022-07-29T01:12:29;10.07;;;9.20;;
17398;SDS011;8817;48.170;8.592;2022-07-29T01:14:58;10.10;;;9.10;;
17398;SDS011;8817;48.170;8.592;2022-07-29T01:17:28;9.52;;;8.73;;
17398;SDS011;8817;48.170;8.592;2022-07-29T01:20:01;9.60;;;8.80;;
17398;SDS011;8817;48.170;8.592;2022-07-29T01:22:37;10.10;;;9.23;;
17398;SDS011;8817;48.170;8.592;2022-07-29T01:25:31;9.55;;;8.77;;
17398;SDS011;8817;48.170;8.592;2022-07-29T01:28:14;9.88;;;9.05;;
17398;SDS011;8817;48.170;8.592;2022-07-29T01:30:53;10.18;;;9.18;;
17398;SDS011;8817;48.170;8.592;2022-07-29T01:33:21;9.63;;;8.93;;
17398;SDS011;8817;48.170;8.592;2022-07-29T01:36:11;10.05;;;9.20;;
17398;SDS011;8817;48.170;8.592;2022-07-29T01:38:43;10.55;;;9.60;;
17398;SDS011;8817;48.170;8.592;2022-07-29T01:41:16;10.13;;;9.35;;
17398;SDS011;8817;48.170;8.592;2022-07-29T01:43:47;10.55;;;9.30;;
17398;SDS011;8817;48.170;8.592;2022-07-29T01:46:24;10.52;;;9.35;;
17398;SDS011;8817;48.170;8.592;2022-07-29T01:48:55;9.95;;;8.95;;
17398;SDS011;8817;48.170;8.592;2022-07-29T01:51:29;10.13;;;9.23;;
17398;SDS011;8817;48.170;8.592;2022-07-29T01:54:02;10.20;;;9.30;;
17398;SDS011;8817;48.170;8.592;2022-07-29T01:56:33;10.05;;;9.25;;
17398;SDS011;8817;48.170;8.592;2022-07-29T01:59:02;10.30;;;9.35;;
17398;SDS011;8817;48.170;8.592;2022-07-29T02:01:34;9.98;;;9.23;;
17398;SDS011;8817;48.170;8.592;2022-07-29T02:04:02;9.98;;;9.20;;
17398;SDS011;8817;48.170;8.592;2022-07-29T02:06:31;10.32;;;9.40;;
17398;SDS011;8817;48.170;8.592;2022-07-29T02:09:01;10.30;;;9.40;;
17398;SDS011;8817;48.170;8.592;2022-07-29T02:11:29;9.93;;;9.20;;
17398;SDS011;8817;48.170;8.592;2022-07-29T02:13:59;11.10;;;9.38;;
17398;SDS011;8817;48.170;8.592;2022-07-29T02:16:28;11.52;;;9.35;;
17398;SDS011;8817;48.170;8.592;2022-07-29T02:19:00;10.18;;;9.27;;
17398;SDS011;8817;48.170;8.592;2022-07-29T02:21:29;10.15;;;9.25;;
17398;SDS011;8817;48.170;8.592;2022-07-29T02:23:59;10.50;;;9.40;;
17398;SDS011;8817;48.170;8.592;2022-07-29T02:26:27;9.82;;;9.10;;
17398;SDS011;8817;48.170;8.592;2022-07-29T02:28:57;9.85;;;9.05;;
17398;SDS011;8817;48.170;8.592;2022-07-29T02:31:25;10.25;;;9.50;;
17398;SDS011;8817;48.170;8.592;2022-07-29T02:33:56;10.68;;;9.32;;
17398;SDS011;8817;48.170;8.592;2022-07-29T02:36:25;10.27;;;9.30;;
17398;SDS011;8817;48.170;8.592;2022-07-29T02:38:54;9.98;;;9.18;;
17398;SDS011;8817;48.170;8.592;2022-07-29T02:41:26;10.20;;;9.32;;
17398;SDS011;8817;48.170;8.592;2022-07-29T02:43:55;10.32;;;9.32;;
17398;SDS011;8817;48.170;8.592;2022-07-29T02:46:26;9.93;;;9.10;;
17398;SDS011;8817;48.170;8.592;2022-07-29T02:48:59;9.85;;;8.95;;
17398;SDS011;8817;48.170;8.592;2022-07-29T02:51:33;9.80;;;8.90;;
17398;SDS011;8817;48.170;8.592;2022-07-29T02:54:05;10.43;;;9.50;;
17398;SDS011;8817;48.170;8.592;2022-07-29T02:56:35;9.95;;;9.05;;
17398;SDS011;8817;48.170;8.592;2022-07-29T02:59:06;10.10;;;9.30;;
17398;SDS011;8817;48.170;8.592;2022-07-29T03:01:36;10.20;;;9.20;;
17398;SDS011;8817;48.170;8.592;2022-07-29T03:04:09;10.50;;;9.60;;
17398;SDS011;8817;48.170;8.592;2022-07-29T03:06:37;9.77;;;8.98;;
17398;SDS011;8817;48.170;8.592;2022-07-29T03:09:07;10.52;;;9.52;;
17398;SDS011;8817;48.170;8.592;2022-07-29T03:11:36;9.50;;;8.80;;
17398;SDS011;8817;48.170;8.592;2022-07-29T03:14:04;9.45;;;8.73;;
17398;SDS011;8817;48.170;8.592;2022-07-29T03:16:33;9.65;;;8.82;;
17398;SDS011;8817;48.170;8.592;2022-07-29T03:19:02;10.00;;;8.85;;
17398;SDS011;8817;48.170;8.592;2022-07-29T03:21:32;8.93;;;8.23;;
17398;SDS011;8817;48.170;8.592;2022-07-29T03:24:00;9.88;;;8.98;;
17398;SDS011;8817;48.170;8.592;2022-07-29T03:26:27;10.00;;;9.02;;
17398;SDS011;8817;48.170;8.592;2022-07-29T03:28:54;9.82;;;8.82;;
17398;SDS011;8817;48.170;8.592;2022-07-29T03:31:21;9.38;;;8.63;;
17398;SDS011;8817;48.170;8.592;2022-07-29T03:33:48;9.80;;;9.00;;
17398;SDS011;8817;48.170;8.592;2022-07-29T03:36:15;9.82;;;8.95;;
17398;SDS011;8817;48.170;8.592;2022-07-29T03:38:44;9.98;;;9.18;;
17398;SDS011;8817;48.170;8.592;2022-07-29T03:41:13;10.00;;;9.10;;
17398;SDS011;8817;48.170;8.592;2022-07-29T03:43:42;10.50;;;9.55;;
17398;SDS011;8817;48.170;8.592;2022-07-29T03:46:10;9.80;;;9.00;;
17398;SDS011;8817;48.170;8.592;2022-07-29T03:48:41;10.13;;;9.23;;
17398;SDS011;8817;48.170;8.592;2022-07-29T03:51:12;10.48;;;9.48;;
17398;SDS011;8817;48.170;8.592;2022-07-29T03:53:39;14.10;;;9.85;;
17398;SDS011;8817;48.170;8.592;2022-07-29T03:56:08;10.32;;;9.32;;
17398;SDS011;8817;48.170;8.592;2022-07-29T03:58:36;10.27;;;9.48;;
17398;SDS011;8817;48.170;8.592;2022-07-29T04:01:04;10.07;;;9.27;;
17398;SDS011;8817;48.170;8.592;2022-07-29T04:03:31;13.90;;;9.77;;
17398;SDS011;8817;48.170;8.592;2022-07-29T04:06:01;9.98;;;9.18;;
17398;SDS011;8817;48.170;8.592;2022-07-29T04:08:30;10.35;;;9.38;;
17398;SDS011;8817;48.170;8.592;2022-07-29T04:10:57;9.90;;;9.07;;
17398;SDS011;8817;48.170;8.592;2022-07-29T04:13:26;13.85;;;9.82;;
17398;SDS011;8817;48.170;8.592;2022-07-29T04:15:53;9.93;;;9.05;;
17398;SDS011;8817;48.170;8.592;2022-07-29T04:18:20;10.63;;;9.50;;
17398;SDS011;8817;48.170;8.592;2022-07-29T04:20:47;10.35;;;9.48;;
17398;SDS011;8817;48.170;8.592;2022-07-29T04:23:14;10.07;;;9.27;;
17398;SDS011;8817;48.170;8.592;2022-07-29T04:25:41;10.35;;;9.25;;
17398;SDS011;8817;48.170;8.592;2022-07-29T04:28:09;10.27;;;9.38;;
17398;SDS011;8817;48.170;8.592;2022-07-29T04:30:38;10.77;;;9.68;;
17398;SDS011;8817;48.170;8.592;2022-07-29T04:33:06;10.10;;;9.25;;
17398;SDS011;8817;48.170;8.592;2022-07-29T04:35:34;9.75;;;8.95;;
17398;SDS011;8817;48.170;8.592;2022-07-29T04:38:02;9.50;;;8.70;;
17398;SDS011;8817;48.170;8.592;2022-07-29T04:40:29;9.70;;;8.90;;
17398;SDS011;8817;48.170;8.592;2022-07-29T04:42:58;9.35;;;8.45;;
17398;SDS011;8817;48.170;8.592;2022-07-29T04:45:26;9.27;;;8.50;;
17398;SDS011;8817;48.170;8.592;2022-07-29T04:47:54;9.25;;;8.48;;
17398;SDS011;8817;48.170;8.592;2022-07-29T04:50:22;12.63;;;8.35;;
17398;SDS011;8817;48.170;8.592;2022-07-29T04:52:49;9.98;;;8.98;;
17398;SDS011;8817;48.170;8.592;2022-07-29T04:55:16;9.20;;;8.40;;
17398;SDS011;8817;48.170;8.592;2022-07-29T04:57:43;11.43;;;8.70;;
17398;SDS011;8817;48.170;8.592;2022-07-29T05:00:10;9.80;;;8.90;;
17398;SDS011;8817;48.170;8.592;2022-07-29T05:02:38;9.82;;;8.82;;
17398;SDS011;8817;48.170;8.592;2022-07-29T05:05:06;9.50;;;8.57;;
17398;SDS011;8817;48.170;8.592;2022-07-29T05:07:34;9.00;;;8.27;;
17398;SDS011;8817;48.170;8.592;2022-07-29T05:10:01;9.40;;;8.50;;
17398;SDS011;8817;48.170;8.592;2022-07-29T05:12:28;9.70;;;8.80;;
17398;SDS011;8817;48.170;8.592;2022-07-29T05:14:55;11.27;;;8.95;;
17398;SDS011;8817;48.170;8.592;2022-07-29T05:17:22;9.45;;;8.55;;
17398;SDS011;8817;48.170;8.592;2022-07-29T05:19:49;9.63;;;8.63;;
17398;SDS011;8817;48.170;8.592;2022-07-29T05:22:18;9.32;;;8.43;;
17398;SDS011;8817;48.170;8.592;2022-07-29T05:24:44;9.73;;;8.73;;
17398;SDS011;8817;48.170;8.592;2022-07-29T05:27:12;8.95;;;8.25;;
17398;SDS011;8817;48.170;8.592;2022-07-29T05:29:39;9.73;;;8.82;;
17398;SDS011;8817;48.170;8.592;2022-07-29T05:32:06;9.45;;;8.65;;
17398;SDS011;8817;48.170;8.592;2022-07-29T05:34:33;9.30;;;8.50;;
17398;SDS011;8817;48.170;8.592;2022-07-29T05:37:00;9.60;;;8.70;;
17398;SDS011;8817;48.170;8.592;2022-07-29T05:39:28;9.23;;;8.52;;
17398;SDS011;8817;48.170;8.592;2022-07-29T05:41:55;9.93;;;9.10;;
17398;SDS011;8817;48.170;8.592;2022-07-29T05:44:22;9.35;;;8.63;;
17398;SDS011;8817;48.170;8.592;2022-07-29T05:46:49;9.77;;;8.60;;
17398;SDS011;8817;48.170;8.592;2022-07-29T05:49:16;8.40;;;7.80;;
17398;SDS011;8817;48.170;8.592;2022-07-29T05:51:43;8.63;;;7.93;;
17398;SDS011;8817;48.170;8.592;2022-07-29T05:54:11;9.05;;;8.35;;
17398;SDS011;8817;48.170;8.592;2022-07-29T05:56:39;8.70;;;8.00;;
17398;SDS011;8817;48.170;8.592;2022-07-29T05:59:06;9.40;;;8.57;;
17398;SDS011;8817;48.170;8.592;2022-07-29T06:01:33;9.38;;;8.48;;
17398;SDS011;8817;48.170;8.592;2022-07-29T06:04:04;9.23;;;8.52;;
17398;SDS011;8817;48.170;8.592;2022-07-29T06:06:31;9.50;;;8.70;;
17398;SDS011;8817;48.170;8.592;2022-07-29T06:08:58;9.50;;;8.65;;
17398;SDS011;8817;48.170;8.592;2022-07-29T06:11:25;9.75;;;8.95;;
17398;SDS011;8817;48.170;8.592;2022-07-29T06:13:54;9.20;;;8.40;;
17398;SDS011;8817;48.170;8.592;2022-07-29T06:16:21;11.23;;;8.50;;
17398;SDS011;8817;48.170;8.592;2022-07-29T06:18:48;9.10;;;8.40;;
17398;SDS011;8817;48.170;8.592;2022-07-29T06:21:15;9.50;;;8.70;;
17398;SDS011;8817;48.170;8.592;2022-07-29T06:23:42;8.85;;;8.15;;
17398;SDS011;8817;48.170;8.592;2022-07-29T06:26:10;9.38;;;8.68;;
17398;SDS011;8817;48.170;8.592;2022-07-29T06:28:37;9.77;;;8.98;;
17398;SDS011;8817;48.170;8.592;2022-07-29T06:31:06;9.07;;;8.38;;
17398;SDS011;8817;48.170;8.592;2022-07-29T06:33:33;11.02;;;8.50;;
17398;SDS011;8817;48.170;8.592;2022-07-29T06:36:00;8.70;;;7.80;;
17398;SDS011;8817;48.170;8.592;2022-07-29T06:38:29;9.07;;;8.18;;
17398;SDS011;8817;48.170;8.592;2022-07-29T06:40:56;9.50;;;8.60;;
17398;SDS011;8817;48.170;8.592;2022-07-29T06:43:26;8.98;;;8.27;;
17398;SDS011;8817;48.170;8.592;2022-07-29T06:45:56;9.18;;;8.48;;
17398;SDS011;8817;48.170;8.592;2022-07-29T06:48:25;8.90;;;7.97;;
17398;SDS011;8817;48.170;8.592;2022-07-29T06:50:53;9.27;;;8.57;;
17398;SDS011;8817;48.170;8.592;2022-07-29T06:53:20;8.85;;;8.25;;
17398;SDS011;8817;48.170;8.592;2022-07-29T06:55:47;8.95;;;8.25;;
17398;SDS011;8817;48.170;8.592;2022-07-29T06:58:14;9.02;;;8.23;;
17398;SDS011;8817;48.170;8.592;2022-07-29T07:00:43;9.13;;;8.43;;
17398;SDS011;8817;48.170;8.592;2022-07-29T07:03:10;8.93;;;8.27;;
17398;SDS011;8817;48.170;8.592;2022-07-29T07:05:39;9.00;;;8.20;;
17398;SDS011;8817;48.170;8.592;2022-07-29T07:08:06;8.88;;;8.18;;
17398;SDS011;8817;48.170;8.592;2022-07-29T07:10:33;8.95;;;8.23;;
17398;SDS011;8817;48.170;8.592;2022-07-29T07:13:01;9.35;;;8.10;;
17398;SDS011;8817;48.170;8.592;2022-07-29T07:15:28;8.32;;;7.72;;
17398;SDS011;8817;48.170;8.592;2022-07-29T07:17:55;8.63;;;7.93;;
17398;SDS011;8817;48.170;8.592;2022-07-29T07:20:22;10.00;;;7.72;;
17398;SDS011;8817;48.170;8.592;2022-07-29T07:22:51;9.00;;;8.20;;
17398;SDS011;8817;48.170;8.592;2022-07-29T07:25:18;8.75;;;8.00;;
17398;SDS011;8817;48.170;8.592;2022-07-29T07:27:45;7.75;;;7.10;;
17398;SDS011;8817;48.170;8.592;2022-07-29T07:30:12;11.85;;;7.80;;
17398;SDS011;8817;48.170;8.592;2022-07-29T07:32:39;10.55;;;7.35;;
17398;SDS011;8817;48.170;8.592;2022-07-29T07:35:07;8.15;;;7.55;;
17398;SDS011;8817;48.170;8.592;2022-07-29T07:37:35;8.90;;;8.10;;
17398;SDS011;8817;48.170;8.592;2022-07-29T07:40:04;8.32;;;7.63;;
17398;SDS011;8817;48.170;8.592;2022-07-29T07:42:32;8.82;;;7.93;;
17398;SDS011;8817;48.170;8.592;2022-07-29T07:44:59;8.60;;;7.90;;
17398;SDS011;8817;48.170;8.592;2022-07-29T07:47:26;9.40;;;8.50;;
17398;SDS011;8817;48.170;8.592;2022-07-29T07:49:53;8.60;;;7.95;;
17398;SDS011;8817;48.170;8.592;2022-07-29T07:52:20;9.00;;;8.13;;
17398;SDS011;8817;48.170;8.592;2022-07-29T07:54:48;8.45;;;7.85;;
17398;SDS011;8817;48.170;8.592;2022-07-29T07:57:16;8.60;;;7.90;;
17398;SDS011;8817;48.170;8.592;2022-07-29T07:59:43;8.35;;;7.68;;
17398;SDS011;8817;48.170;8.592;2022-07-29T08:02:10;8.25;;;7.55;;
17398;SDS011;8817;48.170;8.592;2022-07-29T08:04:37;8.35;;;7.65;;
17398;SDS011;8817;48.170;8.592;2022-07-29T08:07:06;8.20;;;7.50;;
17398;SDS011;8817;48.170;8.592;2022-07-29T08:09:34;8.07;;;7.53;;
17398;SDS011;8817;48.170;8.592;2022-07-29T08:12:02;8.30;;;7.70;;
17398;SDS011;8817;48.170;8.592;2022-07-29T08:14:32;8.48;;;7.88;;
17398;SDS011;8817;48.170;8.592;2022-07-29T08:16:59;8.32;;;7.75;;
17398;SDS011;8817;48.170;8.592;2022-07-29T08:19:26;8.27;;;7.68;;
17398;SDS011;8817;48.170;8.592;2022-07-29T08:21:53;8.30;;;7.72;;
17398;SDS011;8817;48.170;8.592;2022-07-29T08:24:20;8.75;;;8.05;;
17398;SDS011;8817;48.170;8.592;2022-07-29T08:27:05;8.40;;;7.70;;
17398;SDS011;8817;48.170;8.592;2022-07-29T08:29:33;8.05;;;7.45;;
17398;SDS011;8817;48.170;8.592;2022-07-29T08:32:00;9.10;;;8.40;;
17398;SDS011;8817;48.170;8.592;2022-07-29T08:34:27;8.32;;;7.70;;
17398;SDS011;8817;48.170;8.592;2022-07-29T08:36:55;8.80;;;7.78;;
17398;SDS011;8817;48.170;8.592;2022-07-29T08:39:22;8.48;;;7.68;;
17398;SDS011;8817;48.170;8.592;2022-07-29T08:41:49;8.07;;;7.47;;
17398;SDS011;8817;48.170;8.592;2022-07-29T08:44:17;7.93;;;7.43;;
17398;SDS011;8817;48.170;8.592;2022-07-29T08:46:45;8.32;;;7.72;;
17398;SDS011;8817;48.170;8.592;2022-07-29T08:49:12;9.20;;;8.38;;
17398;SDS011;8817;48.170;8.592;2022-07-29T08:51:40;8.48;;;7.72;;
17398;SDS011;8817;48.170;8.592;2022-07-29T08:54:09;8.35;;;7.78;;
17398;SDS011;8817;48.170;8.592;2022-07-29T08:56:36;9.18;;;8.48;;
17398;SDS011;8817;48.170;8.592;2022-07-29T08:59:06;8.55;;;7.97;;
17398;SDS011;8817;48.170;8.592;2022-07-29T09:01:34;8.32;;;7.60;;
17398;SDS011;8817;48.170;8.592;2022-07-29T09:04:07;8.45;;;7.65;;
17398;SDS011;8817;48.170;8.592;2022-07-29T09:06:39;8.40;;;7.80;;
17398;SDS011;8817;48.170;8.592;2022-07-29T09:09:10;8.35;;;7.70;;
17398;SDS011;8817;48.170;8.592;2022-07-29T09:11:38;9.13;;;8.15;;
17398;SDS011;8817;48.170;8.592;2022-07-29T09:14:06;8.15;;;7.55;;
17398;SDS011;8817;48.170;8.592;2022-07-29T09:16:47;8.48;;;7.88;;
17398;SDS011;8817;48.170;8.592;2022-07-29T09:19:27;8.52;;;7.75;;
17398;SDS011;8817;48.170;8.592;2022-07-29T09:21:56;8.27;;;7.60;;
17398;SDS011;8817;48.170;8.592;2022-07-29T09:24:23;7.63;;;7.15;;
17398;SDS011;8817;48.170;8.592;2022-07-29T09:26:52;8.10;;;7.53;;
17398;SDS011;8817;48.170;8.592;2022-07-29T09:29:20;8.60;;;7.80;;
17398;SDS011;8817;48.170;8.592;2022-07-29T09:31:50;8.18;;;7.53;;
17398;SDS011;8817;48.170;8.592;2022-07-29T09:34:21;8.63;;;7.97;;
17398;SDS011;8817;48.170;8.592;2022-07-29T09:36:51;8.10;;;7.55;;
17398;SDS011;8817;48.170;8.592;2022-07-29T09:39:27;8.05;;;7.55;;
17398;SDS011;8817;48.170;8.592;2022-07-29T09:41:58;8.18;;;7.57;;
17398;SDS011;8817;48.170;8.592;2022-07-29T09:44:26;8.35;;;7.75;;
17398;SDS011;8817;48.170;8.592;2022-07-29T09:47:06;8.00;;;7.50;;
17398;SDS011;8817;48.170;8.592;2022-07-29T09:49:33;7.93;;;7.43;;
17398;SDS011;8817;48.170;8.592;2022-07-29T09:52:05;8.05;;;7.55;;
17398;SDS011;8817;48.170;8.592;2022-07-29T09:54:33;8.20;;;7.60;;
17398;SDS011;8817;48.170;8.592;2022-07-29T09:57:03;8.32;;;7.60;;
17398;SDS011;8817;48.170;8.592;2022-07-29T09:59:31;7.70;;;7.10;;
17398;SDS011;8817;48.170;8.592;2022-07-29T10:01:58;8.10;;;7.50;;
17398;SDS011;8817;48.170;8.592;2022-07-29T10:04:36;8.13;;;7.53;;
17398;SDS011;8817;48.170;8.592;2022-07-29T10:07:06;8.50;;;7.90;;
17398;SDS011;8817;48.170;8.592;2022-07-29T10:09:33;8.75;;;8.18;;
17398;SDS011;8817;48.170;8.592;2022-07-29T10:12:05;9.02;;;8.43;;
17398;SDS011;8817;48.170;8.592;2022-07-29T10:14:34;9.15;;;8.45;;
17398;SDS011;8817;48.170;8.592;2022-07-29T10:17:02;9.00;;;8.20;;
17398;SDS011;8817;48.170;8.592;2022-07-29T10:19:30;8.68;;;8.07;;
17398;SDS011;8817;48.170;8.592;2022-07-29T10:21:59;8.60;;;7.90;;
17398;SDS011;8817;48.170;8.592;2022-07-29T10:24:29;8.50;;;7.80;;
17398;SDS011;8817;48.170;8.592;2022-07-29T10:26:58;8.77;;;8.18;;
17398;SDS011;8817;48.170;8.592;2022-07-29T10:29:25;8.02;;;7.53;;
17398;SDS011;8817;48.170;8.592;2022-07-29T10:31:58;8.10;;;7.60;;
17398;SDS011;8817;48.170;8.592;2022-07-29T10:34:36;7.85;;;7.28;;
17398;SDS011;8817;48.170;8.592;2022-07-29T10:37:31;8.75;;;7.60;;
17398;SDS011;8817;48.170;8.592;2022-07-29T10:40:11;8.60;;;7.90;;
17398;SDS011;8817;48.170;8.592;2022-07-29T10:43:14;8.10;;;7.50;;
17398;SDS011;8817;48.170;8.592;2022-07-29T10:45:45;7.60;;;6.90;;
17398;SDS011;8817;48.170;8.592;2022-07-29T10:48:14;8.88;;;8.20;;
17398;SDS011;8817;48.170;8.592;2022-07-29T10:50:54;8.10;;;7.50;;
17398;SDS011;8817;48.170;8.592;2022-07-29T10:53:23;7.78;;;7.22;;
17398;SDS011;8817;48.170;8.592;2022-07-29T10:55:52;7.75;;;7.25;;
17398;SDS011;8817;48.170;8.592;2022-07-29T10:58:20;7.55;;;7.05;;
17398;SDS011;8817;48.170;8.592;2022-07-29T11:00:49;8.30;;;7.63;;
17398;SDS011;8817;48.170;8.592;2022-07-29T11:06:10;8.02;;;7.43;;
17398;SDS011;8817;48.170;8.592;2022-07-29T11:08:37;7.80;;;7.30;;
17398;SDS011;8817;48.170;8.592;2022-07-29T11:14:05;7.78;;;7.28;;
17398;SDS011;8817;48.170;8.592;2022-07-29T11:19:30;8.05;;;7.30;;
17398;SDS011;8817;48.170;8.592;2022-07-29T11:21:57;7.78;;;7.28;;
17398;SDS011;8817;48.170;8.592;2022-07-29T11:24:25;8.25;;;7.53;;
17398;SDS011;8817;48.170;8.592;2022-07-29T11:27:13;7.90;;;7.40;;
17398;SDS011;8817;48.170;8.592;2022-07-29T11:29:48;7.45;;;7.05;;
17398;SDS011;8817;48.170;8.592;2022-07-29T11:32:17;7.60;;;7.07;;
17398;SDS011;8817;48.170;8.592;2022-07-29T11:34:45;8.50;;;7.82;;
17398;SDS011;8817;48.170;8.592;2022-07-29T11:37:19;7.97;;;7.47;;
17398;SDS011;8817;48.170;8.592;2022-07-29T11:42:40;8.35;;;7.75;;
17398;SDS011;8817;48.170;8.592;2022-07-29T11:45:12;8.20;;;7.50;;
17398;SDS011;8817;48.170;8.592;2022-07-29T11:47:48;7.60;;;7.10;;
17398;SDS011;8817;48.170;8.592;2022-07-29T11:50:29;7.80;;;7.20;;
17398;SDS011;8817;48.170;8.592;2022-07-29T11:52:59;7.93;;;7.20;;
17398;SDS011;8817;48.170;8.592;2022-07-29T11:55:27;7.38;;;6.90;;
17398;SDS011;8817;48.170;8.592;2022-07-29T11:57:55;7.78;;;7.07;;
17398;SDS011;8817;48.170;8.592;2022-07-29T12:00:25;8.32;;;7.50;;
17398;SDS011;8817;48.170;8.592;2022-07-29T12:02:55;7.93;;;7.43;;
17398;SDS011;8817;48.170;8.592;2022-07-29T12:05:30;7.82;;;7.32;;
17398;SDS011;8817;48.170;8.592;2022-07-29T12:08:03;7.60;;;7.10;;
17398;SDS011;8817;48.170;8.592;2022-07-29T12:10:38;10.25;;;8.10;;
17398;SDS011;8817;48.170;8.592;2022-07-29T12:13:07;8.40;;;7.80;;
17398;SDS011;8817;48.170;8.592;2022-07-29T12:15:35;8.77;;;8.07;;
17398;SDS011;8817;48.170;8.592;2022-07-29T12:18:09;7.88;;;7.30;;
17398;SDS011;8817;48.170;8.592;2022-07-29T12:20:37;9.45;;;8.63;;
17398;SDS011;8817;48.170;8.592;2022-07-29T12:23:05;12.15;;;9.15;;
17398;SDS011;8817;48.170;8.592;2022-07-29T12:25:34;8.13;;;7.53;;
17398;SDS011;8817;48.170;8.592;2022-07-29T12:28:02;10.50;;;7.13;;
17398;SDS011;8817;48.170;8.592;2022-07-29T12:30:36;8.23;;;7.38;;
17398;SDS011;8817;48.170;8.592;2022-07-29T12:33:13;7.93;;;7.30;;
17398;SDS011;8817;48.170;8.592;2022-07-29T12:35:42;8.43;;;7.82;;
17398;SDS011;8817;48.170;8.592;2022-07-29T12:38:12;8.15;;;7.55;;
17398;SDS011;8817;48.170;8.592;2022-07-29T12:40:41;8.13;;;7.47;;
17398;SDS011;8817;48.170;8.592;2022-07-29T12:43:09;7.90;;;7.32;;
17398;SDS011;8817;48.170;8.592;2022-07-29T12:45:39;7.32;;;6.82;;
17398;SDS011;8817;48.170;8.592;2022-07-29T12:48:07;7.72;;;7.22;;
17398;SDS011;8817;48.170;8.592;2022-07-29T12:50:34;7.45;;;6.95;;
17398;SDS011;8817;48.170;8.592;2022-07-29T12:53:08;7.70;;;7.10;;
17398;SDS011;8817;48.170;8.592;2022-07-29T12:55:43;7.43;;;6.93;;
17398;SDS011;8817;48.170;8.592;2022-07-29T12:58:14;7.68;;;7.07;;
17398;SDS011;8817;48.170;8.592;2022-07-29T13:00:59;7.30;;;6.80;;
17398;SDS011;8817;48.170;8.592;2022-07-29T13:03:41;7.05;;;6.65;;
17398;SDS011;8817;48.170;8.592;2022-07-29T13:06:32;7.15;;;6.70;;
17398;SDS011;8817;48.170;8.592;2022-07-29T13:09:02;7.28;;;6.78;;
17398;SDS011;8817;48.170;8.592;2022-07-29T13:11:33;7.28;;;6.78;;
17398;SDS011;8817;48.170;8.592;2022-07-29T13:14:01;7.13;;;6.63;;
17398;SDS011;8817;48.170;8.592;2022-07-29T13:16:30;7.50;;;7.00;;
17398;SDS011;8817;48.170;8.592;2022-07-29T13:19:03;7.55;;;7.05;;
17398;SDS011;8817;48.170;8.592;2022-07-29T13:21:32;9.23;;;7.50;;
17398;SDS011;8817;48.170;8.592;2022-07-29T13:23:59;7.82;;;7.18;;
17398;SDS011;8817;48.170;8.592;2022-07-29T13:26:26;7.40;;;6.90;;
17398;SDS011;8817;48.170;8.592;2022-07-29T13:28:54;7.35;;;6.95;;
17398;SDS011;8817;48.170;8.592;2022-07-29T13:31:21;7.90;;;7.40;;
17398;SDS011;8817;48.170;8.592;2022-07-29T13:33:49;7.80;;;7.10;;
17398;SDS011;8817;48.170;8.592;2022-07-29T13:36:16;8.38;;;7.68;;
17398;SDS011;8817;48.170;8.592;2022-07-29T13:38:43;8.32;;;7.53;;
17398;SDS011;8817;48.170;8.592;2022-07-29T13:41:10;11.95;;;9.80;;
17398;SDS011;8817;48.170;8.592;2022-07-29T13:43:38;8.63;;;8.02;;
17398;SDS011;8817;48.170;8.592;2022-07-29T13:46:04;8.05;;;7.47;;
17398;SDS011;8817;48.170;8.592;2022-07-29T13:48:31;8.30;;;7.60;;
17398;SDS011;8817;48.170;8.592;2022-07-29T13:51:00;8.60;;;8.00;;
17398;SDS011;8817;48.170;8.592;2022-07-29T13:53:27;7.68;;;7.18;;
17398;SDS011;8817;48.170;8.592;2022-07-29T13:55:54;7.43;;;6.93;;
17398;SDS011;8817;48.170;8.592;2022-07-29T13:58:21;8.02;;;7.38;;
17398;SDS011;8817;48.170;8.592;2022-07-29T14:00:48;7.45;;;7.05;;
17398;SDS011;8817;48.170;8.592;2022-07-29T14:03:16;7.45;;;6.95;;
17398;SDS011;8817;48.170;8.592;2022-07-29T14:05:43;7.10;;;6.70;;
17398;SDS011;8817;48.170;8.592;2022-07-29T14:08:11;7.57;;;6.97;;
17398;SDS011;8817;48.170;8.592;2022-07-29T14:10:38;7.40;;;6.90;;
17398;SDS011;8817;48.170;8.592;2022-07-29T14:13:05;8.32;;;7.53;;
17398;SDS011;8817;48.170;8.592;2022-07-29T14:15:32;7.15;;;6.70;;
17398;SDS011;8817;48.170;8.592;2022-07-29T14:17:59;6.90;;;6.30;;
17398;SDS011;8817;48.170;8.592;2022-07-29T14:20:27;7.03;;;6.47;;
17398;SDS011;8817;48.170;8.592;2022-07-29T14:22:54;7.30;;;6.90;;
17398;SDS011;8817;48.170;8.592;2022-07-29T14:25:23;7.60;;;7.10;;
17398;SDS011;8817;48.170;8.592;2022-07-29T14:27:50;7.90;;;7.18;;
17398;SDS011;8817;48.170;8.592;2022-07-29T14:30:18;8.20;;;7.50;;
17398;SDS011;8817;48.170;8.592;2022-07-29T14:32:45;9.82;;;8.75;;
17398;SDS011;8817;48.170;8.592;2022-07-29T14:35:12;7.88;;;7.38;;
17398;SDS011;8817;48.170;8.592;2022-07-29T14:37:39;8.10;;;7.50;;
17398;SDS011;8817;48.170;8.592;2022-07-29T14:40:07;7.95;;;7.35;;
17398;SDS011;8817;48.170;8.592;2022-07-29T14:42:36;8.13;;;7.53;;
17398;SDS011;8817;48.170;8.592;2022-07-29T14:45:04;7.68;;;7.07;;
17398;SDS011;8817;48.170;8.592;2022-07-29T14:47:33;7.65;;;7.07;;
17398;SDS011;8817;48.170;8.592;2022-07-29T14:50:00;8.23;;;7.43;;
17398;SDS011;8817;48.170;8.592;2022-07-29T14:52:27;7.80;;;7.10;;
17398;SDS011;8817;48.170;8.592;2022-07-29T14:54:54;7.43;;;6.93;;
17398;SDS011;8817;48.170;8.592;2022-07-29T14:57:21;7.47;;;6.95;;
17398;SDS011;8817;48.170;8.592;2022-07-29T14:59:49;9.48;;;7.72;;
17398;SDS011;8817;48.170;8.592;2022-07-29T15:02:16;7.75;;;7.15;;
17398;SDS011;8817;48.170;8.592;2022-07-29T15:04:44;8.32;;;6.95;;
17398;SDS011;8817;48.170;8.592;2022-07-29T15:07:12;8.30;;;7.60;;
17398;SDS011;8817;48.170;8.592;2022-07-29T15:09:40;15.85;;;10.23;;
17398;SDS011;8817;48.170;8.592;2022-07-29T15:12:08;8.40;;;7.70;;
17398;SDS011;8817;48.170;8.592;2022-07-29T15:14:36;7.75;;;7.15;;
17398;SDS011;8817;48.170;8.592;2022-07-29T15:17:04;6.88;;;6.47;;
17398;SDS011;8817;48.170;8.592;2022-07-29T15:19:32;6.90;;;6.50;;
17398;SDS011;8817;48.170;8.592;2022-07-29T15:21:59;6.90;;;6.50;;